aviador You're here:

CYKD Decoded Metar

AKLAVIK AIRPORT in NT, CANADA
Report Time2018-07-21 18:00:00
UTC Time2018-07-21 19:05:47
Flight Rules vfr VFR
WindVRB at 03 kt
Visibility9999 m
Phenomena:N/A
Clouds:Scattered 070 Hf
Broken 240 Hf
Expected CloudBase > 3,200 ft AGL from Temp-Dew spread
Ceiling24,000 ft
Temp15°C (ISA 0)
Dew Point07°C (59% RH)
AAT13.2°C
QNH1026 hPa
Density Alt-272 ft
Elevation23 ft
Report Wrong Elevation
Raw Report
CYKD 211800Z VRB03KT 15SM SCT070 BKN240 15/07 A3030 RMK AC3CS4 CU
DVLPG DIST SW CF DIST SE SLP263=

Extra information for CYKD:More info

Metar Taf Metar & Taf Last 4 Metars F.Rules Stats Wind Profile Meteogram Temp Stats Airport Information Weather charts Add Link Nearby VenuesMetar ALERT Operation Metar Decoded Social comments